Time;durP1;ratioP1;P1;durP2;ratioP2;P2;SDS_P1;SDS_P2;PMS_P1;PMS_P2;Temp;Humidity;BMP_temperature;BMP_pressure;BME280_temperature;BME280_humidity;BME280_pressure;Samples;Min_cycle;Max_cycle;Signal;HPM_P1;HPM_P2
2022/03/07 00:02:08;;;;;;;12.67;8.93;;;1.00;99.90;;;;;;5050618;28;20041;-54
2022/03/07 00:04:34;;;;;;;10.43;8.32;;;1.00;99.90;;;;;;5045131;28;20482;-52
2022/03/07 00:07:00;;;;;;;11.18;7.55;;;0.90;99.90;;;;;;5051052;28;20083;-53
2022/03/07 00:09:26;;;;;;;16.25;8.07;;;0.90;99.90;;;;;;5044572;28;20043;-53
2022/03/07 00:11:52;;;;;;;8.45;7.57;;;0.90;99.90;;;;;;5052000;28;20119;-54
2022/03/07 00:14:17;;;;;;;10.47;7.70;;;0.80;99.90;;;;;;5042299;28;20045;-54
2022/03/07 00:16:44;;;;;;;13.20;7.53;;;0.80;99.90;;;;;;5052545;28;20299;-53
2022/03/07 00:19:09;;;;;;;13.35;8.23;;;0.80;99.90;;;;;;5042825;28;20075;-53
2022/03/07 00:21:36;;;;;;;14.53;9.77;;;0.80;99.90;;;;;;5049320;28;20041;-54
2022/03/07 00:24:02;;;;;;;11.13;8.20;;;0.80;99.90;;;;;;5043435;28;20189;-54
2022/03/07 00:26:28;;;;;;;9.68;7.63;;;0.80;99.90;;;;;;5034404;28;20510;-53
2022/03/07 00:28:54;;;;;;;10.43;8.13;;;0.80;99.90;;;;;;5038324;28;20088;-49
2022/03/07 00:31:20;;;;;;;10.47;8.07;;;0.80;99.90;;;;;;5048247;28;20045;-53
2022/03/07 00:33:47;;;;;;;14.25;9.40;;;0.80;99.90;;;;;;5047569;28;20041;-54
2022/03/07 00:36:13;;;;;;;10.63;7.43;;;0.80;99.90;;;;;;5032348;28;20049;-52
2022/03/07 00:38:39;;;;;;;13.55;8.38;;;0.80;99.90;;;;;;5034310;28;20520;-55
2022/03/07 00:41:04;;;;;;;15.50;10.00;;;0.70;99.90;;;;;;5049526;28;20045;-55
2022/03/07 00:43:30;;;;;;;15.10;9.57;;;0.70;99.90;;;;;;5039708;28;20037;-55
2022/03/07 00:45:56;;;;;;;17.52;11.57;;;0.70;99.90;;;;;;5047036;28;20486;-55
2022/03/07 00:48:21;;;;;;;19.37;11.67;;;0.70;99.90;;;;;;5051495;28;20041;-52
2022/03/07 00:50:49;;;;;;;11.53;9.13;;;0.70;99.90;;;;;;5032327;28;20414;-53
2022/03/07 00:53:17;;;;;;;12.70;9.38;;;0.70;99.90;;;;;;5031766;28;20776;-51
2022/03/07 00:55:43;;;;;;;15.32;8.43;;;0.70;99.90;;;;;;5048268;28;20049;-53
2022/03/07 00:58:09;;;;;;;16.27;8.15;;;0.60;99.90;;;;;;5051625;28;20045;-54
2022/03/07 01:00:36;;;;;;;12.02;9.20;;;0.60;99.90;;;;;;5033971;28;20474;-54
2022/03/07 01:03:02;;;;;;;;;;;0.60;99.90;;;;;;5032440;28;20040;-54
2022/03/07 01:05:27;;;;;;;14.57;8.60;;;0.50;99.90;;;;;;5044807;28;20297;-50
2022/03/07 01:07:53;;;;;;;11.33;8.63;;;0.50;99.90;;;;;;5051610;28;20041;-48
2022/03/07 01:10:18;;;;;;;9.43;7.57;;;0.50;99.90;;;;;;5045919;28;20033;-50
2022/03/07 01:12:44;;;;;;;12.90;9.43;;;0.50;99.90;;;;;;5050573;28;20352;-51
2022/03/07 01:15:10;;;;;;;15.95;9.25;;;0.50;99.90;;;;;;5045535;28;20120;-48
2022/03/07 01:17:37;;;;;;;15.75;8.88;;;0.50;99.90;;;;;;5050117;28;20041;-48
2022/03/07 01:20:03;;;;;;;;;;;0.50;99.90;;;;;;5041865;28;20049;-52
2022/03/07 01:22:29;;;;;;;13.45;8.40;;;0.50;99.90;;;;;;5031321;28;19924;-53
2022/03/07 01:24:54;;;;;;;9.87;7.97;;;0.50;99.90;;;;;;5035890;28;20033;-48
2022/03/07 01:27:20;;;;;;;10.37;8.00;;;0.40;99.90;;;;;;5049499;28;20044;-52
2022/03/07 01:29:45;;;;;;;14.10;6.93;;;0.40;99.90;;;;;;5050203;28;20535;-53
2022/03/07 01:32:11;;;;;;;10.37;7.73;;;0.30;99.90;;;;;;5040990;28;20037;-51
2022/03/07 01:34:36;;;;;;;10.23;8.70;;;0.30;99.90;;;;;;5031369;28;20128;-48
2022/03/07 01:37:02;;;;;;;12.07;8.37;;;0.30;99.90;;;;;;5043994;28;20045;-48
2022/03/07 01:39:28;;;;;;;11.25;7.80;;;0.30;99.90;;;;;;5030876;28;20037;-49
2022/03/07 01:41:53;;;;;;;10.93;7.63;;;0.30;99.90;;;;;;5036549;28;20414;-52
2022/03/07 01:44:24;;;;;;;11.67;8.80;;;0.20;99.90;;;;;;5051044;28;20037;-53
2022/03/07 01:46:50;;;;;;;10.63;7.78;;;0.30;99.90;;;;;;5034941;28;20037;-49
2022/03/07 01:49:17;;;;;;;11.75;8.05;;;0.20;99.90;;;;;;5032052;28;20120;-48
2022/03/07 01:51:45;;;;;;;12.95;8.32;;;0.20;99.90;;;;;;5047089;28;20048;-48
2022/03/07 01:54:14;;;;;;;7.20;6.35;;;0.20;99.90;;;;;;5030736;28;20273;-51
2022/03/07 01:56:42;;;;;;;8.95;7.82;;;0.20;99.90;;;;;;5049329;28;20037;-48
2022/03/07 01:59:11;;;;;;;9.45;6.43;;;0.20;99.90;;;;;;5030690;28;20037;-48
2022/03/07 02:01:38;;;;;;;10.23;6.57;;;0.10;99.90;;;;;;5030903;28;20099;-48
2022/03/07 02:04:04;;;;;;;13.73;6.78;;;0.10;99.90;;;;;;5048631;28;20041;-51
2022/03/07 02:06:30;;;;;;;16.15;10.32;;;0.10;99.90;;;;;;5049423;28;20059;-49
2022/03/07 02:08:57;;;;;;;12.05;7.72;;;0.00;99.90;;;;;;5037530;28;20489;-53
2022/03/07 02:11:23;;;;;;;10.05;7.07;;;0.00;99.90;;;;;;5030361;28;20041;-52
2022/03/07 02:13:49;;;;;;;8.63;7.55;;;-0.10;99.90;;;;;;5042550;28;20461;-48
2022/03/07 02:16:17;;;;;;;9.83;7.10;;;-0.10;99.90;;;;;;5049455;28;20075;-51
2022/03/07 02:18:42;;;;;;;9.23;6.70;;;-0.10;99.90;;;;;;5039502;28;20045;-49
2022/03/07 02:21:11;;;;;;;7.80;6.33;;;-0.10;99.90;;;;;;5031776;28;20076;-49
2022/03/07 02:23:37;;;;;;;8.57;6.00;;;-0.20;99.90;;;;;;5032763;28;20283;-52
2022/03/07 02:26:10;;;;;;;8.50;6.47;;;-0.20;99.90;;;;;;5031188;28;20095;-52
2022/03/07 02:28:38;;;;;;;8.35;6.07;;;-0.30;99.90;;;;;;5037816;28;20071;-53
2022/03/07 02:31:04;;;;;;;10.57;6.80;;;-0.30;99.90;;;;;;5047641;28;20075;-51
2022/03/07 02:33:29;;;;;;;11.90;6.53;;;-0.40;99.90;;;;;;5042036;28;20037;-50
2022/03/07 02:35:56;;;;;;;9.73;7.23;;;-0.40;99.90;;;;;;5028327;28;20410;-53
2022/03/07 02:38:22;;;;;;;7.50;6.05;;;-0.50;99.90;;;;;;5036871;28;20044;-48
2022/03/07 02:40:48;;;;;;;8.98;6.32;;;-0.40;99.90;;;;;;5047728;28;20041;-53
2022/03/07 02:43:14;;;;;;;10.63;7.30;;;-0.40;99.90;;;;;;5045135;28;20033;-52
2022/03/07 02:45:41;;;;;;;9.25;8.02;;;-0.40;99.90;;;;;;5030586;28;20045;-48
2022/03/07 02:48:06;;;;;;;11.23;7.25;;;-0.40;99.90;;;;;;5033054;28;20116;-53
2022/03/07 02:50:32;;;;;;;9.83;7.47;;;-0.40;99.90;;;;;;5048715;28;20124;-53
2022/03/07 02:52:57;;;;;;;10.20;8.37;;;-0.40;99.90;;;;;;5048195;28;20517;-52
2022/03/07 02:55:23;;;;;;;14.33;8.40;;;-0.40;99.90;;;;;;5030179;28;20558;-48
2022/03/07 02:57:49;;;;;;;8.02;6.97;;;-0.40;99.90;;;;;;5041910;28;20103;-48
2022/03/07 03:00:15;;;;;;;12.23;7.50;;;-0.50;99.90;;;;;;5031473;28;20044;-52
2022/03/07 03:02:41;;;;;;;10.43;7.10;;;-0.50;99.90;;;;;;5031098;28;20099;-49
2022/03/07 03:05:07;;;;;;;10.63;7.60;;;-0.50;99.90;;;;;;5044830;28;20116;-51
2022/03/07 03:07:32;;;;;;;7.90;6.85;;;-0.50;99.90;;;;;;5043334;28;20052;-49
2022/03/07 03:09:58;;;;;;;13.30;7.47;;;-0.60;99.90;;;;;;5044320;28;20120;-49
2022/03/07 03:12:24;;;;;;;6.87;5.83;;;-0.60;99.90;;;;;;5047369;28;20068;-52
2022/03/07 03:14:50;;;;;;;16.23;7.90;;;-0.70;99.90;;;;;;5037024;28;20112;-49
2022/03/07 03:17:16;;;;;;;8.63;6.63;;;-0.70;99.90;;;;;;5031838;28;20511;-50
2022/03/07 03:19:42;;;;;;;7.97;6.53;;;-0.70;99.90;;;;;;5047521;28;20045;-52
2022/03/07 03:22:07;;;;;;;6.50;5.87;;;-0.70;99.90;;;;;;5050105;28;20037;-52
2022/03/07 03:24:33;;;;;;;5.73;4.63;;;-0.80;99.90;;;;;;5044304;28;20435;-48
2022/03/07 03:26:58;;;;;;;7.20;4.53;;;-0.80;99.90;;;;;;5033492;28;20083;-50
2022/03/07 03:29:24;;;;;;;6.73;6.03;;;-0.90;99.90;;;;;;5039156;28;20036;-52
2022/03/07 03:31:49;;;;;;;6.57;5.67;;;-1.00;99.90;;;;;;5053405;28;20041;-51
2022/03/07 03:34:15;;;;;;;9.60;5.33;;;-1.00;99.90;;;;;;5045968;28;20438;-48
2022/03/07 03:36:41;;;;;;;8.85;6.80;;;-1.00;99.90;;;;;;5032728;28;20115;-51
2022/03/07 03:39:06;;;;;;;9.43;6.87;;;-0.90;99.90;;;;;;5041937;28;20044;-48
2022/03/07 03:41:32;;;;;;;9.87;6.10;;;-0.90;99.90;;;;;;5033120;28;20044;-53
2022/03/07 03:43:58;;;;;;;8.50;6.83;;;-0.90;99.90;;;;;;5034436;28;20032;-52
2022/03/07 03:46:23;;;;;;;7.80;6.13;;;-0.80;99.90;;;;;;5052791;28;20044;-51
2022/03/07 03:48:49;;;;;;;10.13;6.83;;;-0.80;99.90;;;;;;5051941;28;20033;-48
2022/03/07 03:51:14;;;;;;;8.63;5.47;;;-0.80;99.90;;;;;;5033749;28;20041;-47
2022/03/07 03:53:40;;;;;;;10.87;6.87;;;-0.70;99.90;;;;;;5033211;28;20045;-52
2022/03/07 03:56:05;;;;;;;8.37;6.43;;;-0.70;99.90;;;;;;5033737;28;20073;-52
2022/03/07 03:58:31;;;;;;;14.27;7.40;;;-0.70;99.90;;;;;;5033605;28;20383;-52
2022/03/07 04:00:57;;;;;;;7.00;6.30;;;-0.60;99.90;;;;;;5047997;28;20345;-49
2022/03/07 04:03:23;;;;;;;10.02;6.25;;;-0.70;99.90;;;;;;5051257;28;20037;-50
2022/03/07 04:05:49;;;;;;;12.50;7.63;;;-0.60;99.90;;;;;;5038011;28;20560;-50
2022/03/07 04:08:14;;;;;;;8.73;6.63;;;-0.60;99.90;;;;;;5040038;28;20041;-53
2022/03/07 04:10:40;;;;;;;10.20;6.43;;;-0.60;99.90;;;;;;5051060;28;20375;-47
2022/03/07 04:13:06;;;;;;;11.70;6.13;;;-0.60;99.90;;;;;;5051969;28;20289;-52
2022/03/07 04:15:31;;;;;;;7.40;5.90;;;-0.70;99.90;;;;;;5042485;28;20514;-48
2022/03/07 04:17:57;;;;;;;10.27;7.03;;;-0.80;99.90;;;;;;5035245;28;20056;-51
2022/03/07 04:20:22;;;;;;;12.80;6.80;;;-0.70;99.90;;;;;;5045706;28;20047;-53
2022/03/07 04:22:48;;;;;;;9.83;6.53;;;-0.70;99.90;;;;;;5033319;28;20052;-47
2022/03/07 04:25:13;;;;;;;7.97;6.00;;;-0.70;99.90;;;;;;5038306;28;20545;-53
2022/03/07 04:27:39;;;;;;;8.80;7.20;;;-0.70;99.90;;;;;;5052114;28;20538;-53
2022/03/07 04:30:07;;;;;;;13.50;7.47;;;-0.60;99.90;;;;;;5039581;28;20340;-49
2022/03/07 04:32:36;;;;;;;8.88;6.53;;;-0.60;99.90;;;;;;5033092;28;20045;-53
2022/03/07 04:35:05;;;;;;;7.93;6.75;;;-0.60;99.90;;;;;;5035202;28;20090;-52
2022/03/07 04:37:31;;;;;;;10.15;6.72;;;-0.60;99.90;;;;;;5050697;28;20537;-53
2022/03/07 04:39:58;;;;;;;8.32;6.95;;;-0.50;99.90;;;;;;5033881;28;20040;-53
2022/03/07 04:42:24;;;;;;;10.15;7.07;;;-0.50;99.90;;;;;;5050451;28;20037;-53
2022/03/07 04:44:50;;;;;;;8.47;6.90;;;-0.50;99.90;;;;;;5051219;28;20045;-54
2022/03/07 04:47:15;;;;;;;11.87;7.43;;;-0.50;99.90;;;;;;5031761;28;20045;-53
2022/03/07 04:49:41;;;;;;;15.60;7.80;;;-0.50;99.90;;;;;;5032298;28;20376;-50
2022/03/07 04:52:07;;;;;;;11.20;8.48;;;-0.50;99.90;;;;;;5048633;28;20040;-48
2022/03/07 04:54:32;;;;;;;11.83;7.83;;;-0.50;99.90;;;;;;5050963;28;20048;-52
2022/03/07 04:56:58;;;;;;;12.17;7.53;;;-0.60;99.90;;;;;;5034085;28;20498;-53
2022/03/07 04:59:23;;;;;;;11.80;8.00;;;-0.50;99.90;;;;;;5031573;28;20072;-52
2022/03/07 05:01:49;;;;;;;13.80;9.67;;;-0.50;99.90;;;;;;5046523;28;20462;-48
2022/03/07 05:04:14;;;;;;;16.23;9.70;;;-0.50;99.90;;;;;;5035807;28;20037;-53
2022/03/07 05:06:40;;;;;;;12.63;10.30;;;-0.50;99.90;;;;;;5045012;28;20037;-50
2022/03/07 05:09:06;;;;;;;15.70;9.98;;;-0.50;99.90;;;;;;5050530;28;20446;-53
2022/03/07 05:11:31;;;;;;;13.97;10.17;;;-0.40;99.90;;;;;;5049919;28;20059;-54
2022/03/07 05:13:57;;;;;;;13.37;8.87;;;-0.40;99.90;;;;;;5039251;28;20059;-48
2022/03/07 05:16:23;;;;;;;9.73;8.23;;;-0.40;99.90;;;;;;5039998;28;20455;-53
2022/03/07 05:18:49;;;;;;;9.50;7.77;;;-0.40;99.90;;;;;;5050293;28;20060;-52
2022/03/07 05:21:15;;;;;;;11.15;9.20;;;-0.50;99.90;;;;;;5042727;28;20073;-52
2022/03/07 05:23:40;;;;;;;10.05;8.45;;;-0.50;99.90;;;;;;5033035;28;20041;-48
2022/03/07 05:26:08;;;;;;;9.10;8.13;;;-0.50;99.90;;;;;;5036316;28;20036;-52
2022/03/07 05:28:34;;;;;;;10.80;7.90;;;-0.50;99.90;;;;;;5039466;28;20045;-50
2022/03/07 05:31:00;;;;;;;11.40;8.17;;;-0.50;99.90;;;;;;5034497;28;20040;-52
2022/03/07 05:33:25;;;;;;;12.37;8.27;;;-0.50;99.90;;;;;;5041112;28;20288;-53
2022/03/07 05:35:51;;;;;;;13.50;7.47;;;-0.50;99.90;;;;;;5032634;28;20518;-53
2022/03/07 05:38:17;;;;;;;9.50;7.60;;;-0.60;99.90;;;;;;5039157;28;20041;-54
2022/03/07 05:40:43;;;;;;;10.68;7.57;;;-0.60;99.90;;;;;;5047052;28;20040;-53
2022/03/07 05:43:08;;;;;;;9.80;7.50;;;-0.60;99.90;;;;;;5032657;28;20048;-53
2022/03/07 05:45:34;;;;;;;12.20;8.37;;;-0.70;99.90;;;;;;5049250;28;20422;-53
2022/03/07 05:47:59;;;;;;;9.83;8.27;;;-0.70;99.90;;;;;;5032550;28;20064;-53
2022/03/07 05:50:25;;;;;;;10.07;7.67;;;-0.80;99.90;;;;;;5051007;28;20102;-50
2022/03/07 05:52:51;;;;;;;11.83;9.00;;;-0.80;99.90;;;;;;5033314;28;20049;-54
2022/03/07 05:55:16;;;;;;;14.60;8.00;;;-0.80;99.90;;;;;;5031757;28;20514;-55
2022/03/07 05:57:42;;;;;;;10.50;7.30;;;-0.80;99.90;;;;;;5045745;28;20120;-53
2022/03/07 06:00:09;;;;;;;9.43;7.43;;;-0.80;99.90;;;;;;5037367;28;20390;-54
2022/03/07 06:02:35;;;;;;;11.05;7.90;;;-0.80;99.90;;;;;;5044343;28;20040;-56
2022/03/07 06:05:02;;;;;;;11.10;7.73;;;-0.80;99.90;;;;;;5047579;28;20108;-54
2022/03/07 06:07:28;;;;;;;11.00;7.95;;;-0.90;99.90;;;;;;5048822;28;20060;-54
2022/03/07 06:09:53;;;;;;;11.00;8.87;;;-0.80;99.90;;;;;;5037878;28;20037;-54
2022/03/07 06:12:19;;;;;;;10.27;6.90;;;-0.90;99.90;;;;;;5050267;28;20522;-54
2022/03/07 06:14:44;;;;;;;11.70;8.70;;;-0.90;99.90;;;;;;5047898;28;20040;-54
2022/03/07 06:17:10;;;;;;;9.70;7.93;;;-1.00;99.90;;;;;;5050381;28;20041;-53
2022/03/07 06:19:35;;;;;;;11.80;7.97;;;-1.00;99.90;;;;;;5033395;28;20045;-54
2022/03/07 06:22:01;;;;;;;10.40;8.43;;;-0.90;99.90;;;;;;5030673;28;20084;-54
2022/03/07 06:24:29;;;;;;;14.47;8.80;;;-1.00;99.90;;;;;;5031181;28;20087;-54
2022/03/07 06:26:58;;;;;;;11.23;8.82;;;-0.90;99.90;;;;;;5030213;28;20079;-53
2022/03/07 06:29:23;;;;;;;11.50;7.57;;;-0.80;99.90;;;;;;5043249;28;20045;-55
2022/03/07 06:31:49;;;;;;;12.00;8.67;;;-0.70;99.90;;;;;;5048607;28;20033;-55
2022/03/07 06:34:16;;;;;;;21.85;20.15;;;-0.60;99.90;;;;;;5036807;28;20056;-56
2022/03/07 06:36:41;;;;;;;24.52;22.48;;;-0.40;99.90;;;;;;5047138;28;20064;-54
2022/03/07 06:39:07;;;;;;;17.43;15.97;;;-0.20;99.90;;;;;;5037036;28;20071;-55
2022/03/07 06:41:32;;;;;;;16.00;14.90;;;0.20;99.90;;;;;;5041136;28;20073;-54
2022/03/07 06:44:00;;;;;;;14.90;13.57;;;0.60;99.90;;;;;;5034283;28;20439;-54
2022/03/07 06:46:26;;;;;;;11.43;9.68;;;1.00;99.90;;;;;;5045053;28;20512;-54
2022/03/07 06:48:52;;;;;;;9.38;8.45;;;1.40;99.90;;;;;;5034721;28;20041;-55
2022/03/07 06:51:18;;;;;;;11.50;7.93;;;1.70;99.90;;;;;;5030873;28;20033;-55
2022/03/07 06:53:44;;;;;;;9.55;8.20;;;2.10;99.90;;;;;;5040072;28;20045;-55
2022/03/07 06:56:10;;;;;;;12.68;8.93;;;2.50;99.90;;;;;;5041076;28;20044;-55
2022/03/07 06:58:35;;;;;;;8.60;6.60;;;2.90;99.90;;;;;;5056707;28;20045;-57
2022/03/07 07:01:01;;;;;;;11.37;8.70;;;3.30;99.90;;;;;;5043440;28;20403;-55
2022/03/07 07:03:26;;;;;;;8.87;6.33;;;3.60;99.90;;;;;;5041157;28;20075;-55
2022/03/07 07:05:52;;;;;;;10.33;7.43;;;3.60;99.90;;;;;;5034498;28;20041;-49
2022/03/07 07:08:18;;;;;;;11.80;8.63;;;3.40;99.90;;;;;;5039985;28;20080;-49
2022/03/07 07:10:44;;;;;;;10.68;8.30;;;3.30;99.90;;;;;;5052318;28;20114;-50
2022/03/07 07:13:14;;;;;;;19.33;10.17;;;3.00;99.90;;;;;;5053577;28;20414;-54
2022/03/07 07:15:40;;;;;;;15.93;8.82;;;2.80;99.90;;;;;;5053742;28;20110;-52
2022/03/07 07:18:06;;;;;;;11.85;8.75;;;2.70;99.90;;;;;;5049099;28;20037;-49
2022/03/07 07:20:31;;;;;;;14.57;10.00;;;2.50;99.90;;;;;;5053548;28;20033;-52
2022/03/07 07:22:57;;;;;;;12.57;9.77;;;2.40;99.90;;;;;;5048739;28;20029;-51
2022/03/07 07:25:23;;;;;;;13.03;10.13;;;2.30;99.90;;;;;;5049230;28;20037;-52
2022/03/07 07:27:48;;;;;;;13.05;9.23;;;2.20;99.90;;;;;;5050611;28;20049;-49
2022/03/07 07:30:14;;;;;;;14.90;10.03;;;2.20;99.90;;;;;;5053558;28;20049;-51
2022/03/07 07:32:40;;;;;;;10.60;9.07;;;2.20;99.90;;;;;;5043132;28;20044;-49
2022/03/07 07:35:10;;;;;;;11.45;8.98;;;2.20;99.90;;;;;;5033374;28;20068;-54
2022/03/07 07:37:36;;;;;;;13.73;10.40;;;2.30;99.90;;;;;;5038984;28;20051;-50
2022/03/07 07:40:05;;;;;;;17.95;10.35;;;2.40;99.90;;;;;;5063341;28;20099;-49
2022/03/07 07:42:31;;;;;;;17.05;10.63;;;2.60;99.90;;;;;;5037083;28;20041;-52
2022/03/07 07:44:56;;;;;;;11.80;8.57;;;2.90;99.90;;;;;;5045705;28;20064;-51
2022/03/07 07:47:22;;;;;;;17.13;10.03;;;3.10;99.90;;;;;;5050265;28;20460;-50
2022/03/07 07:49:47;;;;;;;13.97;9.40;;;3.30;99.90;;;;;;5051431;28;20044;-49
2022/03/07 07:52:13;;;;;;;13.73;10.20;;;3.50;99.90;;;;;;5041592;28;20045;-53
2022/03/07 07:54:38;;;;;;;11.33;9.33;;;3.70;99.90;;;;;;5048845;28;20047;-52
2022/03/07 07:57:07;;;;;;;13.03;9.33;;;3.80;99.90;;;;;;5037889;28;20132;-50
2022/03/07 07:59:33;;;;;;;17.77;9.57;;;3.90;99.90;;;;;;5033666;28;20470;-50
2022/03/07 08:01:59;;;;;;;29.52;10.93;;;3.90;99.90;;;;;;5045359;28;20534;-52
2022/03/07 08:04:24;;;;;;;10.23;9.07;;;4.00;99.90;;;;;;5036979;28;20061;-50
2022/03/07 08:06:50;;;;;;;11.10;7.93;;;4.00;99.90;;;;;;5042067;28;20501;-52
2022/03/07 08:09:15;;;;;;;15.70;9.67;;;4.00;99.90;;;;;;5039155;28;20517;-50
2022/03/07 08:11:41;;;;;;;11.40;8.93;;;4.00;99.90;;;;;;5032485;28;20551;-52
2022/03/07 08:14:06;;;;;;;14.37;7.93;;;3.90;99.90;;;;;;5039669;28;20554;-50
2022/03/07 08:16:32;;;;;;;14.57;9.30;;;3.90;99.90;;;;;;5050605;28;20544;-53
2022/03/07 08:18:58;;;;;;;12.93;9.00;;;3.90;99.90;;;;;;5044017;28;20609;-50
2022/03/07 08:21:25;;;;;;;10.40;8.82;;;3.80;99.90;;;;;;5032475;28;20049;-49
2022/03/07 08:23:53;;;;;;;9.90;8.35;;;3.90;99.90;;;;;;5038675;28;20513;-49
2022/03/07 08:26:19;;;;;;;10.75;8.63;;;3.90;99.90;;;;;;5038212;28;20048;-50
2022/03/07 08:28:44;;;;;;;12.87;9.37;;;4.00;99.90;;;;;;5039623;28;20120;-50
2022/03/07 08:31:10;;;;;;;20.97;10.77;;;4.20;99.90;;;;;;5040666;28;20038;-49
2022/03/07 08:33:35;;;;;;;12.30;8.83;;;4.30;99.90;;;;;;5041915;28;20040;-54
2022/03/07 08:36:01;;;;;;;10.00;7.72;;;4.50;99.90;;;;;;5032749;28;20533;-49
2022/03/07 08:38:27;;;;;;;12.10;8.07;;;4.70;99.90;;;;;;5032847;28;20045;-49
2022/03/07 08:40:53;;;;;;;9.68;7.25;;;4.80;99.90;;;;;;5051725;28;20123;-53
2022/03/07 08:43:19;;;;;;;14.63;7.43;;;5.00;99.90;;;;;;5037235;28;20040;-53
2022/03/07 08:45:45;;;;;;;9.82;6.85;;;5.10;99.90;;;;;;5036169;28;20410;-51
2022/03/07 08:48:11;;;;;;;8.80;6.63;;;5.30;99.90;;;;;;5043542;28;20037;-50
2022/03/07 08:50:36;;;;;;;14.25;7.20;;;5.30;99.90;;;;;;5038533;28;20037;-55
2022/03/07 08:53:02;;;;;;;10.97;6.63;;;5.50;99.90;;;;;;5035460;28;20045;-50
2022/03/07 08:55:28;;;;;;;6.15;5.57;;;5.60;99.90;;;;;;5046445;28;20045;-49
2022/03/07 08:57:53;;;;;;;11.47;6.23;;;5.70;99.90;;;;;;5051474;28;20122;-51
2022/03/07 09:00:19;;;;;;;9.13;6.53;;;5.80;99.90;;;;;;5051897;28;20033;-50
2022/03/07 09:02:45;;;;;;;13.48;7.18;;;5.90;99.90;;;;;;5050487;28;20030;-53
2022/03/07 09:05:11;;;;;;;8.30;6.95;;;6.00;99.90;;;;;;5044684;28;20038;-52
2022/03/07 09:07:37;;;;;;;;;;;6.10;99.90;;;;;;5033805;28;20142;-53
2022/03/07 09:10:03;;;;;;;8.23;7.07;;;6.20;99.90;;;;;;5036661;28;20031;-53
2022/03/07 09:12:29;;;;;;;11.25;7.15;;;6.30;99.90;;;;;;5025607;28;20546;-55
2022/03/07 09:14:59;;;;;;;11.37;6.60;;;6.40;99.90;;;;;;5031264;28;20037;-50
2022/03/07 09:17:25;;;;;;;8.95;6.43;;;6.50;99.90;;;;;;5038688;28;20094;-50
2022/03/07 09:19:52;;;;;;;;;;;6.50;99.90;;;;;;5035453;28;20519;-53
2022/03/07 09:22:18;;;;;;;7.03;4.97;;;6.60;99.90;;;;;;5036621;28;19987;-54
2022/03/07 09:24:43;;;;;;;10.90;7.20;;;6.70;99.90;;;;;;5036632;28;20510;-50
2022/03/07 09:27:09;;;;;;;6.03;4.70;;;6.80;99.90;;;;;;5035668;28;20038;-54
2022/03/07 09:29:36;;;;;;;4.67;4.13;;;6.80;99.90;;;;;;5028191;28;20457;-50
2022/03/07 09:32:04;;;;;;;8.23;5.32;;;7.00;99.90;;;;;;5035547;28;20056;-51
2022/03/07 09:34:30;;;;;;;8.75;5.05;;;7.10;99.90;;;;;;5036883;28;20512;-52
2022/03/07 09:36:55;;;;;;;8.87;5.17;;;7.30;99.90;;;;;;5044357;28;20036;-51
2022/03/07 09:39:21;;;;;;;6.03;5.47;;;7.30;99.90;;;;;;5042346;28;21246;-50
2022/03/07 09:41:47;;;;;;;8.50;5.67;;;7.50;99.90;;;;;;5041181;28;20095;-52
2022/03/07 09:44:12;;;;;;;5.83;5.10;;;7.60;99.90;;;;;;5041524;28;20524;-54
2022/03/07 09:46:38;;;;;;;7.67;5.27;;;7.70;99.90;;;;;;5024553;28;20056;-53
2022/03/07 09:49:04;;;;;;;7.47;5.50;;;7.70;99.90;;;;;;5034297;28;20111;-51
2022/03/07 09:51:30;;;;;;;11.10;5.18;;;7.80;99.90;;;;;;5042704;28;20044;-50
2022/03/07 09:53:55;;;;;;;10.15;5.25;;;7.90;99.90;;;;;;5029388;28;20530;-52
2022/03/07 09:56:21;;;;;;;8.80;5.95;;;8.00;99.80;;;;;;5030500;28;20038;-50
2022/03/07 09:58:47;;;;;;;8.95;4.70;;;8.10;99.40;;;;;;5031998;28;20041;-50
2022/03/07 10:01:16;;;;;;;6.67;5.77;;;8.20;99.00;;;;;;5032078;28;20040;-53
2022/03/07 10:03:42;;;;;;;7.35;4.78;;;8.20;98.80;;;;;;5040539;28;20044;-52
2022/03/07 10:06:12;;;;;;;7.70;5.77;;;8.20;99.20;;;;;;5039435;28;20307;-53
2022/03/07 10:08:38;;;;;;;10.52;5.85;;;8.20;99.20;;;;;;5029474;28;20127;-53
2022/03/07 10:11:09;;;;;;;8.80;5.50;;;8.30;99.40;;;;;;5040100;28;20167;-53
2022/03/07 10:13:35;;;;;;;9.00;5.53;;;8.30;98.50;;;;;;5027935;28;20052;-51
2022/03/07 10:16:04;;;;;;;6.15;5.03;;;8.40;98.80;;;;;;5026711;28;20116;-54
2022/03/07 10:18:30;;;;;;;8.65;5.65;;;8.50;98.20;;;;;;5032003;28;20448;-49
2022/03/07 10:21:00;;;;;;;7.45;6.15;;;8.50;98.00;;;;;;5038796;28;20041;-51
2022/03/07 10:23:27;;;;;;;16.00;5.15;;;8.60;98.00;;;;;;5036753;28;20064;-53
2022/03/07 10:26:08;;;;;;;17.95;6.28;;;8.80;98.10;;;;;;5041134;28;20076;-53
2022/03/07 10:28:37;;;;;;;17.80;4.28;;;8.90;98.00;;;;;;5030544;28;20042;-56
2022/03/07 10:31:14;;;;;;;15.98;3.53;;;8.90;97.70;;;;;;5036016;28;20116;-52
2022/03/07 10:33:39;;;;;;;5.90;3.10;;;8.90;98.20;;;;;;5041134;28;20086;-54
2022/03/07 10:36:05;;;;;;;32.17;5.33;;;8.90;98.30;;;;;;5039379;28;20036;-57
2022/03/07 10:38:31;;;;;;;6.80;3.70;;;9.00;98.30;;;;;;5035133;28;20056;-52
2022/03/07 10:40:57;;;;;;;;;;;9.10;97.80;;;;;;5032289;28;20950;-48
2022/03/07 10:43:24;;;;;;;7.75;3.55;;;9.10;96.80;;;;;;5030878;28;19927;-50
2022/03/07 10:45:55;;;;;;;5.45;3.75;;;9.00;96.60;;;;;;5045053;28;20084;-55
2022/03/07 10:48:22;;;;;;;10.80;4.78;;;9.00;96.70;;;;;;5029176;28;20042;-51
2022/03/07 10:50:48;;;;;;;10.50;3.92;;;9.10;96.80;;;;;;5042839;28;20116;-55
2022/03/07 10:53:14;;;;;;;;;;;9.10;96.80;;;;;;5043239;28;20045;-52
2022/03/07 10:55:40;;;;;;;5.68;2.80;;;9.20;96.30;;;;;;5025089;28;19992;-54
2022/03/07 10:58:10;;;;;;;6.90;4.25;;;9.30;96.40;;;;;;5037154;28;20049;-49
2022/03/07 11:00:50;;;;;;;6.15;2.90;;;9.30;96.00;;;;;;5025561;28;20248;-51
2022/03/07 11:03:18;;;;;;;9.35;4.40;;;9.40;95.50;;;;;;5027425;28;20037;-54
2022/03/07 11:05:45;;;;;;;6.93;2.92;;;9.50;96.00;;;;;;5027076;28;20095;-52
2022/03/07 11:08:11;;;;;;;27.50;5.05;;;9.60;95.50;;;;;;5038392;28;20513;-55
2022/03/07 11:10:38;;;;;;;5.78;3.05;;;9.80;95.60;;;;;;5035124;28;20033;-53
2022/03/07 11:13:04;;;;;;;8.73;4.35;;;9.80;94.60;;;;;;5044686;28;20055;-52
2022/03/07 11:15:30;;;;;;;4.38;3.97;;;9.60;93.40;;;;;;5026014;28;20500;-55
2022/03/07 11:17:57;;;;;;;4.95;4.15;;;9.50;94.10;;;;;;5040756;28;20045;-52
2022/03/07 11:20:22;;;;;;;5.25;3.10;;;9.30;93.40;;;;;;5031830;28;20376;-54
2022/03/07 11:22:48;;;;;;;4.45;3.67;;;9.10;92.70;;;;;;5039155;28;20040;-52
2022/03/07 11:25:16;;;;;;;3.77;2.93;;;9.00;93.30;;;;;;5044041;28;20033;-49
2022/03/07 11:27:43;;;;;;;7.95;4.35;;;9.00;92.20;;;;;;5026525;28;20034;-52
2022/03/07 11:30:20;;;;;;;5.53;4.45;;;9.10;93.40;;;;;;5033920;28;20052;-49
2022/03/07 11:32:46;;;;;;;;;;;9.10;93.00;;;;;;5032396;28;20099;-50
2022/03/07 11:35:13;;;;;;;4.90;3.45;;;9.00;93.10;;;;;;5025536;28;20032;-49
2022/03/07 11:37:39;;;;;;;7.97;3.40;;;9.10;93.10;;;;;;5038459;28;20110;-52
2022/03/07 11:40:17;;;;;;;5.72;3.38;;;9.20;93.00;;;;;;5042641;28;20448;-49
2022/03/07 11:42:43;;;;;;;4.00;2.15;;;9.30;92.50;;;;;;5026198;28;20068;-49
2022/03/07 11:45:14;;;;;;;5.07;3.37;;;9.40;92.00;;;;;;5045797;28;20495;-53
2022/03/07 11:47:40;;;;;;;3.38;2.50;;;9.50;90.60;;;;;;5029360;28;20042;-53
2022/03/07 11:50:07;;;;;;;6.78;3.65;;;9.50;90.30;;;;;;5036702;28;20048;-52
2022/03/07 11:52:33;;;;;;;7.72;3.80;;;9.60;89.40;;;;;;5046127;28;20052;-52
2022/03/07 11:55:00;;;;;;;;;;;9.60;90.10;;;;;;5034416;28;20044;-49
2022/03/07 11:57:35;;;;;;;3.97;2.30;;;9.60;90.70;;;;;;5045435;28;20234;-55
2022/03/07 12:00:17;;;;;;;6.22;5.07;;;9.70;89.20;;;;;;5040327;28;20056;-52
2022/03/07 12:02:45;;;;;;;7.25;3.95;;;9.60;90.30;;;;;;5027599;28;20525;-49
2022/03/07 12:05:25;;;;;;;3.75;2.95;;;9.60;91.20;;;;;;5028647;28;20048;-55
2022/03/07 12:07:52;;;;;;;5.50;3.25;;;9.60;90.50;;;;;;5039884;28;20069;-53
2022/03/07 12:10:18;;;;;;;4.90;2.83;;;9.70;88.80;;;;;;5047829;28;20075;-55
2022/03/07 12:12:44;;;;;;;2.45;2.20;;;9.70;88.80;;;;;;5042946;28;20037;-52
2022/03/07 12:15:12;;;;;;;3.07;1.90;;;9.90;87.50;;;;;;5047560;28;20510;-53
2022/03/07 12:17:38;;;;;;;7.70;2.40;;;9.80;82.30;;;;;;5036102;28;20685;-55
2022/03/07 12:20:05;;;;;;;4.20;2.33;;;9.80;83.20;;;;;;5031743;28;20042;-52
2022/03/07 12:22:32;;;;;;;5.22;2.20;;;9.70;85.60;;;;;;5035069;28;20041;-54
2022/03/07 12:24:59;;;;;;;3.10;2.40;;;9.70;83.60;;;;;;5028516;28;20042;-54
2022/03/07 12:27:25;;;;;;;3.17;2.15;;;9.50;79.80;;;;;;5035861;28;20033;-54
2022/03/07 12:29:51;;;;;;;9.23;3.08;;;9.40;81.80;;;;;;5029346;28;20403;-54
2022/03/07 12:32:18;;;;;;;2.90;2.33;;;9.50;83.50;;;;;;5028738;28;20037;-50
2022/03/07 12:34:44;;;;;;;4.18;2.25;;;9.50;83.40;;;;;;5027998;28;20041;-54
2022/03/07 12:37:20;;;;;;;6.15;2.60;;;9.60;82.30;;;;;;5032239;28;20107;-53
2022/03/07 12:39:53;;;;;;;3.78;2.45;;;9.60;81.20;;;;;;5039546;28;20041;-54
2022/03/07 12:42:22;;;;;;;2.97;2.05;;;9.60;79.60;;;;;;5034202;28;20441;-49
2022/03/07 12:44:48;;;;;;;1.63;1.50;;;9.60;78.90;;;;;;5046467;28;20033;-51
2022/03/07 12:47:14;;;;;;;2.22;1.90;;;9.40;73.90;;;;;;5045769;28;20033;-53